Time;durP1;ratioP1;P1;durP2;ratioP2;P2;SDS_P1;SDS_P2;PMS_P1;PMS_P2;Temp;Humidity;BMP_temperature;BMP_pressure;BME280_temperature;BME280_humidity;BME280_pressure;Samples;Min_cycle;Max_cycle;Signal;HPM_P1;HPM_P2
2022/05/19 00:00:30;;;;;;;7.78;1.65;;;22.00;68.10;;;;;;6230400;28;20074;-81
2022/05/19 00:03:34;;;;;;;6.38;1.55;;;21.90;68.60;;;;;;6230565;28;20060;-82
2022/05/19 00:06:36;;;;;;;3.20;1.50;;;21.90;68.00;;;;;;6231455;28;20097;-80
2022/05/19 00:09:39;;;;;;;3.83;1.80;;;21.90;68.50;;;;;;6231057;28;20049;-82
2022/05/19 00:12:40;;;;;;;3.90;1.20;;;21.80;68.80;;;;;;6231514;28;20492;-82
2022/05/19 00:15:42;;;;;;;4.53;1.77;;;21.80;69.20;;;;;;6231603;28;20132;-85
2022/05/19 00:18:44;;;;;;;4.25;1.30;;;21.60;70.40;;;;;;6231695;28;20050;-85
2022/05/19 00:21:46;;;;;;;1.75;1.17;;;21.50;71.00;;;;;;6232527;28;20046;-84
2022/05/19 00:24:49;;;;;;;1.30;0.98;;;21.20;71.90;;;;;;6231925;28;20132;-84
2022/05/19 00:27:51;;;;;;;3.05;1.40;;;21.10;72.60;;;;;;6231706;28;20052;-84
2022/05/19 00:30:52;;;;;;;1.50;1.15;;;21.00;73.10;;;;;;6249613;28;20050;-83
2022/05/19 00:33:54;;;;;;;6.82;1.83;;;20.90;73.80;;;;;;6228446;28;20531;-84
2022/05/19 00:36:59;;;;;;;1.42;1.20;;;20.80;74.10;;;;;;6227805;28;20046;-81
2022/05/19 00:40:03;;;;;;;2.03;1.40;;;20.70;74.60;;;;;;6228511;28;20132;-84
2022/05/19 00:43:06;;;;;;;4.38;1.42;;;20.70;74.50;;;;;;6229259;28;20080;-83
2022/05/19 00:46:11;;;;;;;4.45;1.55;;;20.60;75.20;;;;;;6220567;28;20521;-84
2022/05/19 00:49:17;;;;;;;2.60;1.65;;;20.60;75.60;;;;;;6227267;28;20056;-83
2022/05/19 00:52:24;;;;;;;2.58;1.65;;;20.50;75.90;;;;;;6228176;28;20470;-83
2022/05/19 00:55:32;;;;;;;1.98;1.23;;;20.40;75.90;;;;;;6228212;28;20492;-82
2022/05/19 00:58:39;;;;;;;3.60;1.25;;;20.40;77.20;;;;;;6229522;28;20054;-83
2022/05/19 01:01:43;;;;;;;2.90;1.17;;;20.30;77.20;;;;;;6228862;28;20069;-82
2022/05/19 01:04:51;;;;;;;3.40;1.30;;;20.20;77.10;;;;;;6228042;28;20509;-82
2022/05/19 01:07:57;;;;;;;1.52;1.10;;;20.10;78.10;;;;;;6228225;28;20061;-82
2022/05/19 01:11:01;;;;;;;2.05;1.30;;;20.00;78.60;;;;;;6228425;28;20042;-83
2022/05/19 01:14:04;;;;;;;4.95;1.67;;;19.90;78.70;;;;;;6227501;28;20072;-83
2022/05/19 01:17:07;;;;;;;2.22;1.40;;;19.80;78.80;;;;;;6216322;28;20050;-83
2022/05/19 01:20:15;;;;;;;3.97;1.38;;;19.80;79.20;;;;;;6203645;28;20135;-81
2022/05/19 01:23:26;;;;;;;5.07;1.37;;;19.70;80.30;;;;;;6203643;28;20065;-84
2022/05/19 01:26:45;;;;;;;3.40;1.55;;;19.70;80.60;;;;;;6204980;28;20587;-84
2022/05/19 01:29:47;;;;;;;4.72;1.55;;;19.50;81.50;;;;;;6202858;28;20505;-83
2022/05/19 01:32:49;;;;;;;3.78;1.70;;;19.40;81.40;;;;;;6202980;28;20049;-83
2022/05/19 01:35:51;;;;;;;4.22;1.60;;;19.30;81.50;;;;;;6203673;28;20042;-83
2022/05/19 01:38:59;;;;;;;3.67;1.83;;;19.30;81.40;;;;;;6208320;28;20074;-80
2022/05/19 01:42:08;;;;;;;;;;;19.30;81.90;;;;;;6208749;28;20069;-83
2022/05/19 01:45:29;;;;;;;2.92;1.33;;;19.20;82.60;;;;;;6207217;28;20012;-83
2022/05/19 01:48:40;;;;;;;4.15;1.90;;;19.10;82.70;;;;;;6205217;28;20132;-80
2022/05/19 01:51:47;;;;;;;2.55;1.23;;;19.00;83.40;;;;;;6222340;28;20412;-83
2022/05/19 01:55:00;;;;;;;3.17;1.63;;;18.90;84.30;;;;;;6231310;28;20046;-83
2022/05/19 01:58:10;;;;;;;1.90;1.40;;;18.80;84.60;;;;;;6233921;28;20109;-84
2022/05/19 02:01:14;;;;;;;2.28;1.30;;;18.70;85.00;;;;;;6234975;28;20054;-83
2022/05/19 02:04:22;;;;;;;2.13;1.50;;;18.60;85.10;;;;;;6233315;28;20152;-84
2022/05/19 02:07:24;;;;;;;3.63;1.70;;;18.60;85.50;;;;;;6232755;28;20057;-83
2022/05/19 02:10:29;;;;;;;1.77;1.40;;;18.50;85.90;;;;;;6233300;28;20058;-84
2022/05/19 02:13:34;;;;;;;2.78;1.70;;;18.40;86.40;;;;;;6232123;28;20129;-84
2022/05/19 02:16:37;;;;;;;5.88;2.10;;;18.40;87.30;;;;;;6232426;28;20053;-83
2022/05/19 02:19:41;;;;;;;5.60;2.20;;;18.30;87.70;;;;;;6231704;28;20057;-83
2022/05/19 02:22:44;;;;;;;4.97;2.47;;;18.20;88.00;;;;;;6236479;28;20057;-84
2022/05/19 02:25:48;;;;;;;2.85;2.05;;;18.10;88.50;;;;;;6236482;28;20102;-82
2022/05/19 02:28:56;;;;;;;5.30;2.05;;;18.00;89.10;;;;;;6238942;28;20052;-83
2022/05/19 02:31:58;;;;;;;3.28;1.63;;;17.90;90.00;;;;;;6238161;28;20160;-83
2022/05/19 02:35:00;;;;;;;6.28;1.83;;;17.80;90.10;;;;;;6237121;28;20045;-84
2022/05/19 02:38:03;;;;;;;4.90;2.60;;;17.70;90.20;;;;;;6236891;28;20133;-84
2022/05/19 02:41:05;;;;;;;3.33;1.98;;;17.60;90.30;;;;;;6237507;28;20053;-84
2022/05/19 02:44:08;;;;;;;4.75;1.98;;;17.60;90.50;;;;;;6238680;28;20069;-84
2022/05/19 02:47:10;;;;;;;4.95;2.17;;;17.60;90.50;;;;;;6237414;28;20050;-84
2022/05/19 02:50:13;;;;;;;3.83;1.98;;;17.60;90.50;;;;;;6237038;28;20060;-84
2022/05/19 02:53:17;;;;;;;3.33;2.00;;;17.50;90.70;;;;;;6234762;28;20038;-82
2022/05/19 02:56:19;;;;;;;3.15;1.75;;;17.50;90.80;;;;;;6237021;28;20049;-84
2022/05/19 02:59:22;;;;;;;3.55;2.20;;;17.40;90.90;;;;;;6235803;28;20049;-83
2022/05/19 03:02:23;;;;;;;5.13;2.38;;;17.30;90.80;;;;;;6242588;28;20117;-84
2022/05/19 03:05:27;;;;;;;2.88;2.03;;;17.30;90.90;;;;;;6241266;28;20120;-85
2022/05/19 03:08:29;;;;;;;2.85;1.90;;;17.20;91.00;;;;;;6233585;28;20205;-85
2022/05/19 03:11:31;;;;;;;3.03;2.38;;;17.20;91.10;;;;;;6233566;28;20145;-85
2022/05/19 03:14:34;;;;;;;2.63;1.85;;;17.20;91.20;;;;;;6233310;28;20050;-85
2022/05/19 03:17:36;;;;;;;4.20;2.40;;;17.20;91.00;;;;;;6232132;28;20100;-85
2022/05/19 03:20:38;;;;;;;2.63;1.85;;;17.10;90.90;;;;;;6232524;28;20049;-85
2022/05/19 03:23:40;;;;;;;11.05;1.80;;;17.20;91.10;;;;;;6232329;28;20049;-85
2022/05/19 03:26:42;;;;;;;2.70;2.00;;;17.10;91.30;;;;;;6232555;28;20045;-86
2022/05/19 03:29:45;;;;;;;4.28;1.77;;;17.20;91.70;;;;;;6232417;28;20574;-85
2022/05/19 03:32:47;;;;;;;3.47;1.88;;;17.20;91.50;;;;;;6232559;28;20046;-83
2022/05/19 03:35:56;;;;;;;3.60;2.42;;;17.20;91.40;;;;;;6232274;28;20177;-84
2022/05/19 03:38:59;;;;;;;6.05;2.33;;;17.20;91.30;;;;;;6232833;28;20554;-85
2022/05/19 03:42:01;;;;;;;4.95;2.35;;;17.10;91.50;;;;;;6232697;28;20049;-85
2022/05/19 03:45:05;;;;;;;3.90;2.05;;;17.10;91.60;;;;;;6232376;28;20048;-85
2022/05/19 03:48:07;;;;;;;3.47;1.80;;;17.10;91.60;;;;;;6233844;28;20041;-85
2022/05/19 03:51:11;;;;;;;7.88;2.35;;;17.20;91.50;;;;;;6234605;28;20096;-83
2022/05/19 03:54:13;;;;;;;4.90;2.10;;;17.20;91.60;;;;;;6232368;28;20050;-85
2022/05/19 03:57:17;;;;;;;4.55;2.13;;;17.30;91.40;;;;;;6233975;28;20046;-85
2022/05/19 04:00:22;;;;;;;3.28;1.83;;;17.30;91.30;;;;;;6233302;28;20429;-85
2022/05/19 04:03:23;;;;;;;9.52;2.53;;;17.30;91.30;;;;;;6233838;28;20046;-85
2022/05/19 04:06:26;;;;;;;5.05;1.90;;;17.30;91.30;;;;;;6235163;28;20046;-86
2022/05/19 04:09:27;;;;;;;3.70;2.03;;;17.30;91.20;;;;;;6234770;28;20060;-84
2022/05/19 04:12:29;;;;;;;3.58;2.28;;;17.30;91.20;;;;;;6236332;28;20053;-84
2022/05/19 04:15:32;;;;;;;5.18;2.33;;;17.30;91.30;;;;;;6236381;28;20042;-84
2022/05/19 04:18:34;;;;;;;2.85;2.17;;;17.40;91.10;;;;;;6211213;28;20062;-83
2022/05/19 04:21:36;;;;;;;7.20;2.42;;;17.50;91.00;;;;;;6206501;28;20141;-84
2022/05/19 04:24:38;;;;;;;6.00;2.00;;;17.60;90.90;;;;;;6207280;28;20557;-86
2022/05/19 04:27:40;;;;;;;4.28;2.20;;;17.70;90.70;;;;;;6206247;28;20406;-81
2022/05/19 04:30:43;;;;;;;7.88;2.53;;;17.80;90.60;;;;;;6205903;28;20054;-85
2022/05/19 04:33:45;;;;;;;5.90;1.80;;;17.90;90.50;;;;;;6205498;28;20061;-85
2022/05/19 04:36:47;;;;;;;3.10;1.90;;;18.00;90.60;;;;;;6206191;28;20043;-84
2022/05/19 04:39:49;;;;;;;2.20;1.90;;;18.20;90.60;;;;;;6205514;28;20046;-84
2022/05/19 04:42:51;;;;;;;4.68;2.33;;;18.40;90.30;;;;;;6207003;28;20055;-82
2022/05/19 04:45:55;;;;;;;5.18;2.45;;;18.40;89.80;;;;;;6204768;28;20458;-84
2022/05/19 04:48:57;;;;;;;10.15;2.40;;;18.60;89.30;;;;;;6203803;28;20078;-84
2022/05/19 04:51:59;;;;;;;7.22;2.22;;;18.70;89.40;;;;;;6204435;28;20099;-83
2022/05/19 04:55:01;;;;;;;7.07;2.47;;;18.80;88.70;;;;;;6225761;28;20042;-82
2022/05/19 04:58:02;;;;;;;3.10;1.60;;;18.90;88.60;;;;;;6229011;28;20053;-84
2022/05/19 05:01:06;;;;;;;4.78;1.75;;;19.20;88.00;;;;;;6230078;28;20136;-84
2022/05/19 05:04:08;;;;;;;2.38;1.80;;;19.50;87.10;;;;;;6229587;28;20416;-84
2022/05/19 05:07:10;;;;;;;3.83;1.98;;;20.20;85.40;;;;;;6229494;28;20053;-82
2022/05/19 05:10:12;;;;;;;2.47;2.13;;;20.80;83.40;;;;;;6228774;28;20512;-82
2022/05/19 05:13:16;;;;;;;4.32;2.35;;;21.50;81.50;;;;;;6230644;28;20053;-82
2022/05/19 05:16:19;;;;;;;11.20;2.65;;;22.50;78.60;;;;;;6229838;28;20046;-84
2022/05/19 05:19:23;;;;;;;3.25;1.65;;;23.50;75.20;;;;;;6228860;28;20054;-84
2022/05/19 05:22:25;;;;;;;2.58;1.85;;;24.40;72.90;;;;;;6228737;28;20050;-84
2022/05/19 05:25:29;;;;;;;2.53;1.70;;;25.70;69.20;;;;;;6231685;28;20184;-84
2022/05/19 05:28:31;;;;;;;2.60;1.67;;;27.10;65.50;;;;;;6230851;28;20513;-85
2022/05/19 05:31:35;;;;;;;4.47;2.20;;;28.40;61.30;;;;;;6227910;28;20065;-84
2022/05/19 05:34:36;;;;;;;3.38;1.45;;;29.40;57.80;;;;;;6227684;28;20056;-83
2022/05/19 05:37:38;;;;;;;3.50;1.40;;;30.30;54.90;;;;;;6228214;28;20138;-82
2022/05/19 05:40:40;;;;;;;1.73;1.20;;;31.20;50.40;;;;;;6229472;28;20079;-84
2022/05/19 05:43:42;;;;;;;1.75;0.98;;;32.10;47.00;;;;;;6229576;28;20045;-85
2022/05/19 05:46:45;;;;;;;3.88;1.50;;;32.70;45.30;;;;;;6230048;28;20050;-85
2022/05/19 05:49:47;;;;;;;2.50;1.33;;;33.20;43.40;;;;;;6225999;28;20054;-83
2022/05/19 05:52:49;;;;;;;3.88;1.05;;;33.70;41.50;;;;;;6228146;28;20192;-83
2022/05/19 05:55:50;;;;;;;6.72;1.23;;;34.30;40.00;;;;;;6225814;28;20042;-84
2022/05/19 05:58:52;;;;;;;5.85;1.20;;;35.00;39.90;;;;;;6228496;28;20060;-82
2022/05/19 06:01:56;;;;;;;2.25;1.02;;;35.10;38.80;;;;;;6229535;28;20046;-84
2022/05/19 06:04:58;;;;;;;2.83;1.27;;;35.40;38.20;;;;;;6229285;28;20046;-82
2022/05/19 06:08:00;;;;;;;3.72;1.10;;;35.80;38.00;;;;;;6226479;28;20045;-82
2022/05/19 06:11:02;;;;;;;0.90;0.60;;;36.60;37.30;;;;;;6230281;28;20140;-83
2022/05/19 06:14:04;;;;;;;1.75;0.90;;;37.50;36.00;;;;;;6228334;28;20050;-81
2022/05/19 06:17:07;;;;;;;4.57;0.90;;;38.30;34.70;;;;;;6227764;28;20394;-79
2022/05/19 06:20:11;;;;;;;1.35;0.98;;;38.90;33.30;;;;;;6229552;28;20042;-80
2022/05/19 06:23:16;;;;;;;3.40;0.50;;;39.30;32.60;;;;;;6229080;28;20486;-81
2022/05/19 06:26:17;;;;;;;1.35;0.82;;;39.40;32.20;;;;;;6229442;28;20038;-82
2022/05/19 06:29:19;;;;;;;1.75;1.00;;;39.60;32.20;;;;;;6229186;28;20527;-81
2022/05/19 06:32:22;;;;;;;3.80;0.90;;;40.00;31.80;;;;;;6232526;28;20046;-81
2022/05/19 06:35:27;;;;;;;2.13;1.00;;;40.40;30.80;;;;;;6236022;28;20046;-82
2022/05/19 06:38:28;;;;;;;4.15;0.93;;;40.70;30.50;;;;;;6233888;28;20410;-83
2022/05/19 06:45:03;;;;;;;4.95;1.45;;;41.00;30.00;;;;;;6181506;28;20045;-81
2022/05/19 06:48:07;;;;;;;3.95;1.15;;;41.10;29.90;;;;;;6233733;28;20038;-83
2022/05/19 06:51:09;;;;;;;6.03;1.30;;;41.10;29.90;;;;;;6230510;28;20057;-82
2022/05/19 06:54:11;;;;;;;3.55;1.10;;;41.10;30.00;;;;;;6231510;28;20428;-83
2022/05/19 06:57:13;;;;;;;3.70;1.08;;;41.00;29.90;;;;;;6229959;28;20065;-84
2022/05/19 07:00:18;;;;;;;2.70;1.15;;;41.10;30.50;;;;;;6231514;28;20045;-84
2022/05/19 07:03:21;;;;;;;6.35;1.35;;;41.00;30.40;;;;;;6230325;28;20132;-83
2022/05/19 07:06:23;;;;;;;1.15;0.90;;;41.10;30.40;;;;;;6230487;28;20104;-83
2022/05/19 07:09:25;;;;;;;3.03;1.30;;;41.40;30.00;;;;;;6228695;28;20041;-83
2022/05/19 07:12:26;;;;;;;6.10;2.10;;;41.40;29.90;;;;;;6230369;28;20074;-82
2022/05/19 07:15:28;;;;;;;3.60;1.23;;;41.50;29.90;;;;;;6232016;28;20057;-83
2022/05/19 07:18:31;;;;;;;1.15;0.80;;;41.80;30.00;;;;;;6232057;28;20526;-83
2022/05/19 07:21:32;;;;;;;7.45;1.40;;;42.00;29.80;;;;;;6231325;28;20049;-82
2022/05/19 07:24:35;;;;;;;4.30;1.35;;;42.20;29.40;;;;;;6232255;28;20521;-83
2022/05/19 07:27:37;;;;;;;3.97;1.05;;;42.10;29.50;;;;;;6231206;28;20058;-83
2022/05/19 07:30:39;;;;;;;3.47;1.10;;;41.90;29.80;;;;;;6233415;28;20512;-83
2022/05/19 07:33:43;;;;;;;3.38;1.45;;;41.90;30.00;;;;;;6232703;28;20046;-81
2022/05/19 07:36:45;;;;;;;5.55;1.50;;;42.30;29.80;;;;;;6235384;28;20049;-83
2022/05/19 07:39:47;;;;;;;10.27;1.40;;;42.70;29.30;;;;;;6231003;28;20052;-82
2022/05/19 07:42:49;;;;;;;3.00;1.30;;;42.70;29.20;;;;;;6230929;28;20056;-84
2022/05/19 07:45:50;;;;;;;3.13;1.27;;;43.20;29.20;;;;;;6231092;28;20049;-82
2022/05/19 07:48:54;;;;;;;4.15;1.20;;;43.60;29.10;;;;;;6232457;28;20102;-81
2022/05/19 07:51:57;;;;;;;4.70;1.02;;;44.20;28.60;;;;;;6230564;28;20053;-83
2022/05/19 07:54:59;;;;;;;5.25;1.63;;;44.50;28.40;;;;;;6232061;28;20049;-82
2022/05/19 07:58:01;;;;;;;4.88;1.15;;;44.40;28.00;;;;;;6229459;28;20050;-83
2022/05/19 08:01:02;;;;;;;2.97;1.15;;;44.00;28.60;;;;;;6230775;28;20057;-81
2022/05/19 08:04:06;;;;;;;1.38;0.90;;;43.80;28.50;;;;;;6225991;28;20057;-82
2022/05/19 08:07:08;;;;;;;5.47;1.27;;;43.70;28.60;;;;;;6231497;28;20046;-83
2022/05/19 08:10:24;;;;;;;1.83;0.90;;;43.50;28.50;;;;;;6230487;28;20117;-83
2022/05/19 08:16:45;;;;;;;1.15;0.90;;;43.40;28.20;;;;;;6240211;28;20050;-81
2022/05/19 08:19:48;;;;;;;4.63;1.13;;;42.70;28.60;;;;;;6235801;28;20125;-83
2022/05/19 08:22:50;;;;;;;3.08;0.90;;;40.50;29.90;;;;;;6235592;28;20084;-84
2022/05/19 08:25:52;;;;;;;3.55;0.80;;;38.50;31.80;;;;;;6228049;28;20076;-84
2022/05/19 08:28:54;;;;;;;2.67;1.30;;;37.10;33.30;;;;;;6229432;28;20136;-84
2022/05/19 08:31:56;;;;;;;2.67;1.20;;;36.10;34.90;;;;;;6228949;28;20037;-81
2022/05/19 08:34:59;;;;;;;5.22;1.17;;;35.30;35.80;;;;;;6226420;28;20543;-83
2022/05/19 08:38:01;;;;;;;6.13;1.60;;;34.40;36.70;;;;;;6227366;28;20521;-85
2022/05/19 08:41:06;;;;;;;3.13;0.93;;;33.60;37.90;;;;;;6227039;28;20458;-87
2022/05/19 08:44:15;;;;;;;1.80;1.10;;;33.20;39.00;;;;;;6227785;28;20470;-84
2022/05/19 08:47:23;;;;;;;1.63;1.20;;;33.00;39.90;;;;;;6228900;28;20046;-83
2022/05/19 08:50:34;;;;;;;3.33;1.40;;;33.00;40.30;;;;;;6226834;28;20057;-85
2022/05/19 08:53:39;;;;;;;2.45;1.30;;;33.00;40.20;;;;;;6228968;28;20053;-86
2022/05/19 08:56:56;;;;;;;4.10;1.52;;;33.00;41.00;;;;;;6229938;28;20049;-85
2022/05/19 09:00:04;;;;;;;3.80;1.67;;;32.80;40.70;;;;;;6228158;28;20172;-89
2022/05/19 09:03:17;;;;;;;1.92;1.10;;;32.40;40.90;;;;;;6227513;28;20056;-84
2022/05/19 09:06:34;;;;;;;4.43;1.20;;;32.10;41.20;;;;;;6230483;28;20417;-84
2022/05/19 09:09:48;;;;;;;1.97;1.33;;;32.00;42.00;;;;;;6225718;28;20046;-84
2022/05/19 09:13:07;;;;;;;3.88;1.17;;;32.00;42.60;;;;;;6225990;28;20054;-84
2022/05/19 09:16:12;;;;;;;5.47;1.42;;;31.90;42.00;;;;;;6225908;28;20088;-85
2022/05/19 09:19:19;;;;;;;3.90;1.50;;;31.70;42.80;;;;;;6229782;28;20429;-84
2022/05/19 09:22:24;;;;;;;1.42;1.10;;;31.80;43.20;;;;;;6229532;28;20445;-86
2022/05/19 09:25:26;;;;;;;4.88;1.35;;;31.90;43.20;;;;;;6229571;28;20125;-84
2022/05/19 09:28:28;;;;;;;3.83;1.48;;;32.10;42.50;;;;;;6226076;28;20054;-84
2022/05/19 09:31:39;;;;;;;2.25;1.17;;;32.20;42.60;;;;;;6235283;28;20065;-84
2022/05/19 09:34:44;;;;;;;4.05;1.90;;;32.40;42.70;;;;;;6234742;28;20050;-84
2022/05/19 09:37:49;;;;;;;3.67;1.15;;;32.70;42.60;;;;;;6233920;28;20052;-83
2022/05/19 09:40:56;;;;;;;3.35;1.30;;;33.00;42.60;;;;;;6233191;28;20046;-86
2022/05/19 09:44:00;;;;;;;11.18;3.08;;;33.00;41.90;;;;;;6234926;28;20045;-86
2022/05/19 09:47:17;;;;;;;3.97;1.10;;;32.90;42.20;;;;;;6237371;28;20056;-84
2022/05/19 09:50:23;;;;;;;5.97;1.17;;;33.00;42.00;;;;;;6236922;28;20639;-86
2022/05/19 09:53:29;;;;;;;5.18;1.85;;;33.00;41.60;;;;;;6234597;28;20042;-85
2022/05/19 09:56:38;;;;;;;3.33;1.13;;;33.10;41.70;;;;;;6235417;28;20237;-85
2022/05/19 09:59:49;;;;;;;3.85;1.35;;;33.40;41.20;;;;;;6230041;28;20501;-85
2022/05/19 10:02:55;;;;;;;6.97;1.70;;;34.00;40.70;;;;;;6234999;28;20057;-86
2022/05/19 10:06:03;;;;;;;7.05;1.98;;;34.70;40.40;;;;;;6236068;28;20044;-80
2022/05/19 10:09:13;;;;;;;4.25;1.10;;;34.90;39.50;;;;;;6249999;28;20077;-86
2022/05/19 10:12:22;;;;;;;7.05;1.40;;;34.60;40.00;;;;;;6241196;28;20042;-85
2022/05/19 10:15:41;;;;;;;5.30;1.35;;;34.20;40.50;;;;;;6237463;28;20084;-84
2022/05/19 10:18:57;;;;;;;2.75;1.40;;;33.80;40.90;;;;;;6237158;28;20059;-85
2022/05/19 10:22:23;;;;;;;3.03;1.58;;;33.60;41.80;;;;;;6237713;28;20042;-86
2022/05/19 10:25:43;;;;;;;1.98;1.63;;;33.60;41.70;;;;;;6238856;28;20070;-87
2022/05/19 10:32:45;;;;;;;4.03;1.02;;;34.00;40.80;;;;;;6236049;28;20154;-84
2022/05/19 10:35:58;;;;;;;7.13;1.27;;;34.30;41.10;;;;;;6234563;28;20101;-81
2022/05/19 10:39:18;;;;;;;9.30;1.42;;;34.50;40.80;;;;;;6235535;28;20073;-85
2022/05/19 10:42:32;;;;;;;2.45;1.20;;;34.80;39.50;;;;;;6235039;28;20157;-84
2022/05/19 10:45:39;;;;;;;5.60;1.20;;;34.80;39.30;;;;;;6235508;28;20046;-84
2022/05/19 10:48:57;;;;;;;3.63;1.52;;;35.00;39.10;;;;;;6238686;28;20050;-83
2022/05/19 10:52:07;;;;;;;4.78;1.20;;;35.30;38.50;;;;;;6239122;28;20050;-83
2022/05/19 10:55:16;;;;;;;10.27;1.45;;;35.60;37.40;;;;;;6239585;28;20136;-84
2022/05/19 10:58:31;;;;;;;2.75;1.67;;;36.00;37.60;;;;;;6236929;28;20044;-85
2022/05/19 11:01:43;;;;;;;7.03;1.52;;;36.20;37.20;;;;;;6234394;28;20092;-83
2022/05/19 11:05:05;;;;;;;5.32;1.63;;;36.50;37.20;;;;;;6228706;28;20421;-83
2022/05/19 11:08:16;;;;;;;8.40;1.92;;;36.90;36.70;;;;;;6236303;28;20097;-83
2022/05/19 11:11:25;;;;;;;8.43;1.67;;;37.20;36.50;;;;;;6234801;28;20053;-83
2022/05/19 11:14:41;;;;;;;4.00;1.20;;;37.50;35.80;;;;;;6236627;28;20050;-83
2022/05/19 11:17:56;;;;;;;8.00;1.35;;;37.80;36.00;;;;;;6232387;28;20042;-83
2022/05/19 11:21:05;;;;;;;4.47;1.20;;;38.00;35.90;;;;;;6231261;28;20060;-85
2022/05/19 11:24:13;;;;;;;4.80;1.33;;;38.20;36.00;;;;;;6227371;28;20504;-84
2022/05/19 11:27:27;;;;;;;7.63;1.20;;;38.50;35.30;;;;;;6229261;28;20049;-84
2022/05/19 11:30:37;;;;;;;5.20;1.25;;;38.70;34.60;;;;;;6227154;28;20135;-85
2022/05/19 11:33:42;;;;;;;6.68;1.13;;;38.90;34.40;;;;;;6230792;28;20076;-83
2022/05/19 11:36:52;;;;;;;9.05;1.83;;;38.90;34.20;;;;;;6226451;28;20049;-83
2022/05/19 11:40:02;;;;;;;3.92;1.15;;;38.80;32.90;;;;;;6227789;28;20049;-84
2022/05/19 11:43:10;;;;;;;3.22;0.95;;;39.00;33.00;;;;;;6227922;28;20049;-84
2022/05/19 11:46:19;;;;;;;9.50;1.20;;;39.10;32.80;;;;;;6228063;28;20060;-83
2022/05/19 11:56:13;;;;;;;5.03;1.10;;;39.10;32.50;;;;;;6228454;28;20033;-86
2022/05/19 12:02:26;;;;;;;5.07;0.73;;;38.90;33.00;;;;;;6220632;28;20517;-85
2022/05/19 12:05:32;;;;;;;3.80;1.10;;;38.80;32.90;;;;;;6231688;28;20058;-84
2022/05/19 12:08:38;;;;;;;6.78;1.50;;;38.80;32.70;;;;;;6230238;28;20123;-83
2022/05/19 12:11:52;;;;;;;5.25;1.25;;;38.80;31.80;;;;;;6229287;28;20076;-84
2022/05/19 12:15:26;;;;;;;3.28;0.65;;;39.00;32.30;;;;;;6227975;28;20054;-85
2022/05/19 12:19:09;;;;;;;5.55;1.60;;;39.30;31.60;;;;;;6223326;28;20049;-85
2022/05/19 12:22:12;;;;;;;2.03;0.80;;;39.60;31.20;;;;;;6226998;28;20168;-85
2022/05/19 12:28:53;;;;;;;4.03;1.10;;;39.70;30.50;;;;;;6227586;28;20525;-86
2022/05/19 12:32:33;;;;;;;5.78;1.00;;;39.80;30.30;;;;;;6222849;28;20049;-84
2022/05/19 12:39:32;;;;;;;3.80;0.85;;;40.00;29.90;;;;;;6213185;28;20107;-85
2022/05/19 12:46:43;;;;;;;3.70;1.13;;;39.80;30.10;;;;;;6223117;28;20045;-85
2022/05/19 12:54:19;;;;;;;8.52;1.23;;;39.70;30.10;;;;;;6228999;28;20679;-85
2022/05/19 12:57:34;;;;;;;8.63;1.27;;;39.70;30.40;;;;;;6223784;28;20399;-84
2022/05/19 13:00:42;;;;;;;6.07;1.10;;;39.80;29.90;;;;;;6224080;28;20416;-84
2022/05/19 13:03:48;;;;;;;7.20;1.67;;;40.00;30.00;;;;;;6213864;28;20143;-85
2022/05/19 13:06:54;;;;;;;5.40;1.52;;;40.00;30.40;;;;;;6226291;28;20049;-84
2022/05/19 13:10:04;;;;;;;12.20;1.77;;;40.10;30.50;;;;;;6225686;28;20049;-84
2022/05/19 13:13:12;;;;;;;4.78;1.23;;;40.10;30.30;;;;;;6229388;28;20129;-85
2022/05/19 13:16:18;;;;;;;3.45;1.02;;;39.90;30.40;;;;;;6236051;28;20476;-84
2022/05/19 13:19:23;;;;;;;6.25;1.33;;;39.40;30.50;;;;;;6239191;28;20096;-84
2022/05/19 13:22:30;;;;;;;4.80;1.15;;;39.00;31.20;;;;;;6236594;28;20042;-85
2022/05/19 13:25:43;;;;;;;4.78;1.13;;;38.80;31.50;;;;;;6226372;28;20057;-85
2022/05/19 13:32:24;;;;;;;5.90;1.25;;;38.50;32.70;;;;;;6229623;28;20049;-85
2022/05/19 13:35:26;;;;;;;5.30;1.05;;;38.30;32.20;;;;;;6230305;28;20041;-84
2022/05/19 13:38:28;;;;;;;8.55;1.48;;;38.10;32.70;;;;;;6232465;28;20179;-84
2022/05/19 13:41:32;;;;;;;4.68;1.10;;;38.10;32.40;;;;;;6230428;28;20077;-84
2022/05/19 13:44:37;;;;;;;4.72;1.40;;;38.20;32.70;;;;;;6229160;28;20053;-83
2022/05/19 13:47:41;;;;;;;4.05;1.20;;;38.10;32.60;;;;;;6226540;28;20060;-84
2022/05/19 13:50:44;;;;;;;7.82;1.23;;;38.00;32.90;;;;;;6226366;28;20092;-83
2022/05/19 13:53:50;;;;;;;3.20;1.23;;;38.00;33.30;;;;;;6229720;28;20065;-83
2022/05/19 13:56:59;;;;;;;6.10;1.33;;;38.10;32.40;;;;;;6230717;28;20068;-82
2022/05/19 14:00:09;;;;;;;5.65;1.55;;;38.00;32.90;;;;;;6231715;28;20131;-84
2022/05/19 14:03:12;;;;;;;6.82;1.20;;;38.00;33.00;;;;;;6234164;28;20081;-83
2022/05/19 14:10:11;;;;;;;5.20;1.08;;;37.70;33.40;;;;;;6228740;28;20521;-85
2022/05/19 14:13:18;;;;;;;2.92;0.88;;;37.70;34.00;;;;;;6238962;28;20066;-85
2022/05/19 14:16:22;;;;;;;3.30;1.30;;;37.60;32.90;;;;;;6250021;28;20050;-85
2022/05/19 14:19:30;;;;;;;3.17;0.85;;;37.50;33.40;;;;;;6248442;28;20073;-85
2022/05/19 14:22:33;;;;;;;7.30;1.90;;;37.40;33.50;;;;;;6243528;28;20081;-85
2022/05/19 14:25:38;;;;;;;6.10;1.38;;;37.50;33.50;;;;;;6240662;28;20042;-85
2022/05/19 14:28:43;;;;;;;7.18;1.27;;;37.60;32.80;;;;;;6235334;28;20060;-84
2022/05/19 14:31:54;;;;;;;3.13;1.40;;;37.70;32.40;;;;;;6234356;28;20049;-83
2022/05/19 14:35:08;;;;;;;6.93;1.92;;;37.80;32.30;;;;;;6234171;28;20050;-85
2022/05/19 14:38:17;;;;;;;6.38;1.23;;;37.80;32.20;;;;;;6210075;28;20093;-84
2022/05/19 14:44:53;;;;;;;8.98;1.73;;;38.10;32.00;;;;;;6210889;28;20494;-86
2022/05/19 14:47:55;;;;;;;5.40;1.20;;;38.20;32.20;;;;;;6213355;28;20042;-86
2022/05/19 14:50:58;;;;;;;6.10;1.10;;;38.10;31.90;;;;;;6214105;28;20050;-85
2022/05/19 14:54:01;;;;;;;5.72;1.10;;;38.10;32.70;;;;;;6216878;28;20057;-85
2022/05/19 14:57:11;;;;;;;5.45;1.42;;;38.20;32.60;;;;;;6208342;28;20110;-87
2022/05/19 15:00:17;;;;;;;1.90;0.73;;;38.20;31.80;;;;;;6199561;28;20109;-85
2022/05/19 15:03:31;;;;;;;4.18;1.42;;;38.10;32.10;;;;;;6216657;28;20042;-86
2022/05/19 15:06:34;;;;;;;5.25;1.27;;;38.20;32.30;;;;;;6230922;28;20057;-86
2022/05/19 15:09:54;;;;;;;4.30;1.20;;;38.00;32.10;;;;;;6224624;28;20042;-86
2022/05/19 15:13:11;;;;;;;10.02;1.50;;;37.80;32.20;;;;;;6228806;28;20049;-86
2022/05/19 15:16:18;;;;;;;9.40;1.37;;;37.80;32.60;;;;;;6218414;28;20049;-86
2022/05/19 15:19:25;;;;;;;5.63;1.88;;;38.00;33.00;;;;;;6228054;28;20049;-87
2022/05/19 15:22:31;;;;;;;;;;;38.10;33.70;;;;;;6229240;28;20057;-87
2022/05/19 15:25:33;;;;;;;2.20;1.00;;;38.20;34.20;;;;;;6223667;28;20027;-84
2022/05/19 15:28:39;;;;;;;6.88;1.77;;;38.20;33.90;;;;;;6236146;28;20263;-86
2022/05/19 15:31:42;;;;;;;7.80;1.30;;;38.10;34.00;;;;;;6234990;28;20046;-85
2022/05/19 15:34:44;;;;;;;2.65;0.98;;;38.00;34.20;;;;;;6233488;28;20104;-84
2022/05/19 15:37:49;;;;;;;11.90;1.10;;;38.00;34.10;;;;;;6245606;28;20049;-88
2022/05/19 15:40:51;;;;;;;5.63;1.42;;;37.90;33.80;;;;;;6246112;28;20472;-85
2022/05/19 15:43:59;;;;;;;5.28;1.00;;;37.80;34.00;;;;;;6245209;28;20049;-86
2022/05/19 15:47:02;;;;;;;3.53;1.40;;;37.50;34.10;;;;;;6244949;28;20519;-84
2022/05/19 15:50:07;;;;;;;6.40;1.50;;;37.30;34.60;;;;;;6246882;28;20190;-85
2022/05/19 15:53:10;;;;;;;6.97;1.48;;;37.10;34.90;;;;;;6241173;28;20073;-84
2022/05/19 15:56:12;;;;;;;6.28;1.27;;;37.00;34.90;;;;;;6242999;28;20077;-84
2022/05/19 15:59:15;;;;;;;5.88;1.88;;;36.90;35.40;;;;;;6240891;28;20042;-82
2022/05/19 16:02:25;;;;;;;6.00;1.52;;;36.70;35.80;;;;;;6240089;28;20066;-85
2022/05/19 16:05:28;;;;;;;5.65;1.10;;;36.60;35.90;;;;;;6232450;28;20159;-83
2022/05/19 16:08:30;;;;;;;4.13;1.75;;;36.30;36.70;;;;;;6217883;28;20051;-83
2022/05/19 16:11:32;;;;;;;3.33;1.42;;;36.10;35.70;;;;;;6220115;28;20069;-84
2022/05/19 16:14:34;;;;;;;11.50;2.10;;;35.80;36.00;;;;;;6217035;28;20054;-84
2022/05/19 16:17:39;;;;;;;12.23;4.68;;;35.50;36.70;;;;;;6233144;28;20050;-83
2022/05/19 16:20:41;;;;;;;8.45;3.72;;;35.30;37.40;;;;;;6241810;28;20152;-83
2022/05/19 16:23:42;;;;;;;9.15;2.22;;;35.10;37.70;;;;;;6232576;28;20045;-84
2022/05/19 16:26:44;;;;;;;4.03;2.15;;;35.00;37.60;;;;;;6233017;28;20081;-83
2022/05/19 16:29:46;;;;;;;6.15;1.65;;;34.90;38.10;;;;;;6232657;28;20420;-83
2022/05/19 16:32:49;;;;;;;3.65;1.63;;;34.90;38.30;;;;;;6237297;28;20124;-82
2022/05/19 16:35:52;;;;;;;8.20;2.53;;;34.80;38.70;;;;;;6234923;28;20137;-84
2022/05/19 16:38:55;;;;;;;7.05;1.60;;;34.80;38.90;;;;;;6241726;28;20042;-88
2022/05/19 16:41:58;;;;;;;6.20;2.08;;;34.90;39.10;;;;;;6231744;28;20068;-83
2022/05/19 16:45:00;;;;;;;4.55;1.15;;;35.00;39.20;;;;;;6231758;28;20137;-84
2022/05/19 16:48:05;;;;;;;3.10;1.38;;;35.30;39.00;;;;;;6233438;28;20045;-83
2022/05/19 16:51:07;;;;;;;4.28;1.42;;;35.50;38.90;;;;;;6229059;28;20140;-82
2022/05/19 16:57:48;;;;;;;7.32;1.42;;;35.60;37.90;;;;;;6238350;28;20117;-84